Spirit Of Vi — CFL2070 — position and weather

sailwx.info

Track history (hours):
 
Tides and Currents Weather Stations Pressure Air Temp Water Temp Dewpoint Dewpoint Depression Visibility Wind Speed Wind Dir Waves Ship Positions

Spirit Of Vi

Last reported at 2017-Nov-20 00:30 UTC. Time now 2017-Nov-20 03:58 UTC.
Position N 48°53' W 123°17'.

Length 168 m; draft 5 m.

Type: Ship. MMSI: 316001269.

Date/timePositionNaut miles runAvg speedWind from/ knotsBaromVisibWave heightAir tempDewpointWater temp
2017-Nov-20 00:30N 48°53' W 123°17'714.7
2017-Nov-20 00:00N 48°46' W 123°21'5 5.0
2017-Nov-19 22:57N 48°42' W 123°24'716.0
2017-Nov-19 22:30N 48°48' W 123°21'714.7
2017-Nov-19 22:00N 48°55' W 123°16'714.3
2017-Nov-19 21:30N 49°00' W 123°09'0 0.7
2017-Nov-19 21:00N 49°00' W 123°08'3 6.5
2017-Nov-19 20:30N 48°58' W 123°11'917.6
2017-Nov-19 20:00N 48°52' W 123°20'10 7.4
2017-Nov-19 18:36N 48°42' W 123°24'216.2
2017-Nov-19 18:30N 48°42' W 123°22'1018.1
2017-Nov-19 17:58N 48°52' W 123°20'817.1
2017-Nov-19 17:30N 48°58' W 123°13'4 8.0
2017-Nov-19 17:00N 49°00' W 123°08'0 0.3
2017-Nov-19 16:30N 49°00' W 123°08'1018.4
2017-Nov-19 15:57N 48°53' W 123°18'714.9
2017-Nov-19 15:30N 48°46' W 123°21'5 0.5
2017-Nov-19 06:22N 48°42' W 123°24'615.3
2017-Nov-19 05:59N 48°47' W 123°21'816.8
2017-Nov-19 05:30N 48°54' W 123°16'816.0
2017-Nov-19 05:00N 49°00' W 123°08'0 0.0
2017-Nov-19 04:30N 49°00' W 123°08'714.2
2017-Nov-19 04:00N 48°55' W 123°15'915.2
2017-Nov-19 03:24N 48°47' W 123°21'6 5.9
2017-Nov-19 02:26N 48°42' W 123°24'615.0
2017-Nov-19 02:00N 48°47' W 123°21'916.5
2017-Nov-19 01:28N 48°55' W 123°15'714.6
2017-Nov-19 01:00N 49°00' W 123°08'0 0.0
2017-Nov-19 00:30N 49°00' W 123°08'714.3
2017-Nov-19 00:01N 48°55' W 123°14'815.5
2017-Nov-18 23:30N 48°48' W 123°21'7 6.5
2017-Nov-18 22:26N 48°42' W 123°24'716.4
2017-Nov-18 22:00N 48°48' W 123°21'715.1
2017-Nov-18 21:30N 48°55' W 123°16'714.7
2017-Nov-18 21:00N 49°00' W 123°08'0 0.0
2017-Nov-18 20:30N 49°00' W 123°08'815.4
2017-Nov-18 20:00N 48°54' W 123°15'916.3
2017-Nov-18 19:27N 48°46' W 123°21'5 5.0
2017-Nov-18 18:24N 48°42' W 123°24'716.2
2017-Nov-18 18:00N 48°48' W 123°21'816.1
2017-Nov-18 17:30N 48°55' W 123°15'714.7
2017-Nov-18 17:00N 49°00' W 123°08'0 0.0
2017-Nov-18 16:31N 49°00' W 123°08'816.0
2017-Nov-18 16:00N 48°54' W 123°16'714.2
2017-Nov-18 15:30N 48°48' W 123°21'7 0.8
2017-Nov-18 06:26N 48°41' W 123°25'613.4
2017-Nov-18 06:00N 48°47' W 123°21'816.4
2017-Nov-18 05:30N 48°54' W 123°17'816.6
2017-Nov-18 05:01N 49°00' W 123°08'0 0.1
2017-Nov-18 04:30N 49°00' W 123°08'713.9
2017-Nov-18 04:00N 48°55' W 123°14'714.3
2017-Nov-18 03:30N 48°49' W 123°21'8 6.9
2017-Nov-18 02:23N 48°41' W 123°24'616.7
2017-Nov-18 02:00N 48°47' W 123°21'816.6
2017-Nov-18 01:30N 48°55' W 123°16'714.3
2017-Nov-18 00:59N 49°00' W 123°08'0 0.0
2017-Nov-18 00:29N 49°00' W 123°08'816.1
2017-Nov-18 00:00N 48°54' W 123°16'815.2
2017-Nov-17 23:30N 48°48' W 123°21'6 6.0
2017-Nov-17 22:26N 48°42' W 123°24'716.5
2017-Nov-17 22:00N 48°48' W 123°20'714.4
2017-Nov-17 21:31N 48°55' W 123°16'815.4
2017-Nov-17 21:00N 49°00' W 123°08'0 0.1
2017-Nov-17 20:29N 49°00' W 123°08'714.6
2017-Nov-17 20:00N 48°55' W 123°15'815.1
2017-Nov-17 19:30N 48°48' W 123°21'7 6.7
2017-Nov-17 18:26N 48°42' W 123°24'716.9
2017-Nov-17 18:00N 48°48' W 123°20'714.7
2017-Nov-17 17:30N 48°55' W 123°15'714.7
2017-Nov-17 17:01N 49°00' W 123°08'0 0.1
2017-Nov-17 16:31N 49°00' W 123°08'816.3
2017-Nov-17 16:01N 48°54' W 123°16'714.3
2017-Nov-17 15:30N 48°47' W 123°21'6 0.7
2017-Nov-17 06:27N 48°42' W 123°24'817.4
2017-Nov-17 06:00N 48°49' W 123°21'816.3
2017-Nov-17 05:30N 48°56' W 123°14'612.1
2017-Nov-17 05:00N 49°00' W 123°08'0 0.2
2017-Nov-17 04:31N 49°00' W 123°08'917.7
2017-Nov-17 04:00N 48°53' W 123°16'815.6
2017-Nov-17 03:28N 48°46' W 123°22'4 4.8
2017-Nov-17 02:33N 48°42' W 123°24'114.7
2017-Nov-17 02:30N 48°42' W 123°23'918.2
2017-Nov-17 02:00N 48°51' W 123°21'816.5
2017-Nov-17 01:30N 48°57' W 123°13'5 9.5
2017-Nov-17 00:59N 49°00' W 123°08'1 1.9
2017-Nov-17 00:30N 48°60' W 123°09'1020.0
2017-Nov-17 00:00N 48°52' W 123°18'916.1
2017-Nov-16 23:28N 48°44' W 123°24'2 3.0
2017-Nov-16 22:37N 48°42' W 123°24'215.5
2017-Nov-16 22:30N 48°42' W 123°22'918.5
2017-Nov-16 21:59N 48°52' W 123°21'713.4
2017-Nov-16 21:29N 48°57' W 123°14'511.0
2017-Nov-16 21:00N 49°00' W 123°08'0 0.2
2017-Nov-16 20:31N 49°00' W 123°08'1018.2
2017-Nov-16 19:59N 48°53' W 123°17'816.2
2017-Nov-16 19:30N 48°45' W 123°21'5 4.3
2017-Nov-16 18:27N 48°42' W 123°24'816.7
2017-Nov-16 17:59N 48°49' W 123°21'816.0
2017-Nov-16 17:31N 48°56' W 123°15'713.3
2017-Nov-16 17:00N 49°00' W 123°08'0 0.0
2017-Nov-16 16:30N 49°00' W 123°08'815.8
2017-Nov-16 16:00N 48°54' W 123°15'714.4
2017-Nov-16 15:31N 48°48' W 123°21'7 0.8
2017-Nov-16 06:29N 48°42' W 123°24'817.1
2017-Nov-16 06:00N 48°50' W 123°21'815.8
2017-Nov-16 05:31N 48°56' W 123°14'610.8
2017-Nov-16 04:57N 49°00' W 123°08'2 5.2
2017-Nov-16 04:30N 48°58' W 123°10'1019.1
2017-Nov-16 04:00N 48°52' W 123°20'816.9
2017-Nov-16 03:30N 48°44' W 123°25'2 3.1
2017-Nov-16 02:45N 48°41' W 123°25'314.7
2017-Nov-16 02:31N 48°44' W 123°21'917.5
2017-Nov-16 02:00N 48°52' W 123°18'1019.2
2017-Nov-16 01:30N 48°60' W 123°09'1 1.4
2017-Nov-16 00:58N 49°00' W 123°08'2 4.8
2017-Nov-16 00:31N 48°59' W 123°10'1018.8
2017-Nov-15 23:59N 48°52' W 123°20'817.5
2017-Nov-15 23:30N 48°44' W 123°25'2 2.4
2017-Nov-15 22:36N 48°41' W 123°25'214.7
2017-Nov-15 22:30N 48°42' W 123°22'918.9
2017-Nov-15 22:00N 48°51' W 123°21'816.9
2017-Nov-15 21:30N 48°57' W 123°13'4 9.0
2017-Nov-15 21:00N 49°00' W 123°08'0 0.0
2017-Nov-15 20:30N 49°00' W 123°08'816.0
2017-Nov-15 20:00N 48°54' W 123°16'815.4
2017-Nov-15 19:30N 48°47' W 123°21'6 6.3
2017-Nov-15 18:32N 48°42' W 123°24'013.3
2017-Nov-15 18:30N 48°42' W 123°24'815.1
2017-Nov-15 18:00N 48°49' W 123°21'815.1
2017-Nov-15 17:30N 48°55' W 123°15'713.5
2017-Nov-15 17:00N 49°00' W 123°08'0 0.0
2017-Nov-15 16:30N 49°00' W 123°08'816.7
2017-Nov-15 16:00N 48°54' W 123°16'714.5
2017-Nov-15 15:30N 48°47' W 123°21'6 0.7
2017-Nov-15 06:57N 48°42' W 123°22'817.7
2017-Nov-15 06:30N 48°50' W 123°21'713.9
2017-Nov-15 06:00N 48°56' W 123°17'713.8
2017-Nov-15 05:30N 49°00' W 123°08'0 0.3
2017-Nov-15 05:00N 49°00' W 123°08'510.6
2017-Nov-15 04:30N 48°56' W 123°13'816.3
2017-Nov-15 04:00N 48°50' W 123°20'9 8.2
2017-Nov-15 02:57N 48°41' W 123°25'715.2
2017-Nov-15 02:29N 48°48' W 123°21'816.7
2017-Nov-15 02:00N 48°55' W 123°16'714.5
2017-Nov-15 01:30N 49°00' W 123°08'0 0.4
2017-Nov-15 01:00N 49°00' W 123°08'5 9.5
2017-Nov-15 00:30N 48°56' W 123°12'916.3
2017-Nov-14 23:59N 48°50' W 123°21'9 7.6
2017-Nov-14 22:47N 48°41' W 123°25'414.9
2017-Nov-14 22:30N 48°45' W 123°21'816.2
2017-Nov-14 22:01N 48°53' W 123°18'918.9
2017-Nov-14 21:31N 49°00' W 123°09'1 1.8
2017-Nov-14 21:00N 49°00' W 123°08'3 5.7
2017-Nov-14 20:30N 48°58' W 123°10'1019.1
2017-Nov-14 20:00N 48°51' W 123°21'10 7.7
2017-Nov-14 18:41N 48°42' W 123°24'315.8
2017-Nov-14 18:29N 48°44' W 123°21'816.3
2017-Nov-14 18:00N 48°52' W 123°20'815.3
2017-Nov-14 17:30N 48°57' W 123°12'4 8.2
2017-Nov-14 17:01N 49°00' W 123°08'0 0.0
2017-Nov-14 16:30N 49°00' W 123°08'816.6
2017-Nov-14 16:00N 48°54' W 123°16'815.3
2017-Nov-14 15:30N 48°47' W 123°21'6 0.8
2017-Nov-14 07:41N 48°41' W 123°25'211.0
2017-Nov-14 07:30N 48°42' W 123°22'918.6
2017-Nov-14 07:00N 48°51' W 123°21'816.8
2017-Nov-14 06:30N 48°57' W 123°12'4 8.3
2017-Nov-14 06:00N 49°00' W 123°08'0 0.8
2017-Nov-14 05:30N 49°00' W 123°08'1020.1
2017-Nov-14 05:00N 48°53' W 123°18'917.4
2017-Nov-14 04:28N 48°44' W 123°24'3 2.4
2017-Nov-14 03:25N 48°41' W 123°24'715.9
2017-Nov-14 03:00N 48°48' W 123°21'816.3
2017-Nov-14 02:30N 48°55' W 123°16'714.6
2017-Nov-14 02:00N 49°00' W 123°08'0 0.3
2017-Nov-14 01:30N 49°00' W 123°08'1 2.8
2017-Nov-14 01:00N 48°59' W 123°08'917.9
2017-Nov-14 00:30N 48°53' W 123°18'4 7.1
2017-Nov-14 00:00N 48°49' W 123°21'714.8
2017-Nov-13 23:30N 48°43' W 123°26'8 0.4
2017-Nov-13 01:57N 48°50' W 123°21'817.3
2017-Nov-13 01:31N 48°56' W 123°14'611.0
2017-Nov-13 00:59N 49°00' W 123°08'1 1.3
2017-Nov-13 00:30N 48°60' W 123°08'1019.5
2017-Nov-13 00:00N 48°53' W 123°18'714.9
2017-Nov-12 23:31N 48°46' W 123°22'4 4.5
2017-Nov-12 22:30N 48°41' W 123°25'815.3
2017-Nov-12 22:00N 48°49' W 123°21'916.5
2017-Nov-12 21:29N 48°56' W 123°14'612.3
2017-Nov-12 21:00N 49°00' W 123°08'0 0.0
2017-Nov-12 20:30N 49°00' W 123°08'816.4
2017-Nov-12 20:00N 48°54' W 123°16'816.4
2017-Nov-12 19:30N 48°46' W 123°21'6 5.7
2017-Nov-12 18:31N 48°41' W 123°25'010.4
2017-Nov-12 18:30N 48°41' W 123°24'816.5
2017-Nov-12 18:00N 48°49' W 123°21'815.0
2017-Nov-12 17:30N 48°56' W 123°15'612.7
2017-Nov-12 17:00N 49°00' W 123°08'0 0.6
2017-Nov-12 16:30N 49°00' W 123°08'612.6
2017-Nov-12 16:00N 48°55' W 123°14'815.8
2017-Nov-12 15:30N 48°48' W 123°21'7 0.8
2017-Nov-12 06:27N 48°41' W 123°24'716.0
2017-Nov-12 05:59N 48°48' W 123°21'815.6
2017-Nov-12 05:30N 48°55' W 123°16'714.5
2017-Nov-12 05:00N 49°00' W 123°08'0 0.3
2017-Nov-12 04:31N 49°00' W 123°08'917.3
2017-Nov-12 04:00N 48°54' W 123°17'713.1
2017-Nov-12 03:30N 48°48' W 123°21'6 6.1
2017-Nov-12 02:27N 48°42' W 123°24'613.5
2017-Nov-12 02:00N 48°47' W 123°21'816.1
2017-Nov-12 01:30N 48°55' W 123°17'816.0
2017-Nov-12 01:00N 49°00' W 123°08'0 0.0
2017-Nov-12 00:30N 49°00' W 123°08'815.8
2017-Nov-12 00:00N 48°54' W 123°16'714.4
2017-Nov-11 23:30N 48°48' W 123°21'7 6.3
2017-Nov-11 22:25N 48°42' W 123°24'818.1
2017-Nov-11 21:58N 48°49' W 123°21'817.4
2017-Nov-11 21:30N 48°56' W 123°14'611.7
2017-Nov-11 21:00N 49°00' W 123°08'0 0.2
2017-Nov-11 20:30N 49°00' W 123°08'918.4
2017-Nov-11 20:00N 48°53' W 123°17'815.6
2017-Nov-11 19:30N 48°46' W 123°22'5 4.4
2017-Nov-11 18:27N 48°42' W 123°24'816.6
2017-Nov-11 17:58N 48°49' W 123°21'714.9
2017-Nov-11 17:31N 48°55' W 123°15'714.2
2017-Nov-11 17:01N 49°00' W 123°08'0 0.0
2017-Nov-11 16:30N 49°00' W 123°08'815.8
2017-Nov-11 15:59N 48°54' W 123°16'916.7
2017-Nov-11 15:26N 48°46' W 123°22'4 0.5
2017-Nov-11 06:40N 48°42' W 123°24'316.7
2017-Nov-11 06:29N 48°43' W 123°21'816.8
2017-Nov-11 06:00N 48°52' W 123°19'1019.9
2017-Nov-11 05:30N 48°59' W 123°10'1 2.9
2017-Nov-11 05:00N 49°00' W 123°08'3 6.0
2017-Nov-11 04:30N 48°58' W 123°10'918.4
2017-Nov-11 04:00N 48°52' W 123°21'10 7.5
2017-Nov-11 02:38N 48°42' W 123°24'216.8
2017-Nov-11 02:30N 48°43' W 123°21'918.1
2017-Nov-11 02:00N 48°52' W 123°20'918.2
2017-Nov-11 01:30N 48°58' W 123°11'3 5.1
2017-Nov-11 00:59N 49°00' W 123°08'2 3.6
2017-Nov-11 00:30N 48°59' W 123°09'1019.3
2017-Nov-11 00:00N 48°52' W 123°19'815.5
2017-Nov-10 23:29N 48°44' W 123°24'3 2.9
2017-Nov-10 22:33N 48°41' W 123°24'117.3
2017-Nov-10 22:30N 48°42' W 123°23'919.1
2017-Nov-10 22:00N 48°51' W 123°21'816.6
2017-Nov-10 21:30N 48°57' W 123°13'5 8.8
2017-Nov-10 20:59N 49°00' W 123°08'1 1.5
2017-Nov-10 20:31N 48°60' W 123°08'1019.5
2017-Nov-10 20:00N 48°52' W 123°18'815.5
2017-Nov-10 19:30N 48°45' W 123°23'4 3.9
2017-Nov-10 18:32N 48°42' W 123°24'015.1
2017-Nov-10 18:30N 48°42' W 123°24'714.4
2017-Nov-10 18:00N 48°49' W 123°21'816.2
2017-Nov-10 17:30N 48°56' W 123°15'613.0
2017-Nov-10 17:00N 49°00' W 123°08'0 0.0
2017-Nov-10 16:30N 49°00' W 123°08'714.9
2017-Nov-10 16:00N 48°55' W 123°15'815.9
2017-Nov-10 15:30N 48°47' W 123°20'6 0.7
2017-Nov-10 06:24N 48°42' W 123°24'716.9
2017-Nov-10 06:00N 48°48' W 123°21'815.1
2017-Nov-10 05:30N 48°55' W 123°16'815.3
2017-Nov-10 05:00N 49°00' W 123°08'0 0.2
2017-Nov-10 04:31N 49°00' W 123°08'918.6
2017-Nov-10 04:01N 48°53' W 123°17'815.1
2017-Nov-10 03:30N 48°46' W 123°21'5 4.8
2017-Nov-10 02:29N 48°42' W 123°24'817.1
2017-Nov-10 02:00N 48°49' W 123°21'815.2
2017-Nov-10 01:30N 48°56' W 123°15'612.8
2017-Nov-10 01:01N 49°00' W 123°08'0 0.1
2017-Nov-10 00:31N 49°00' W 123°08'  
Track history (hours):
 
Tides and Currents Weather Stations Pressure Air Temp Water Temp Dewpoint Dewpoint Depression Visibility Wind Speed Wind Dir Waves Ship Positions

Spirit Of Vi

Last reported at 2017-Nov-20 00:30 UTC. Time now 2017-Nov-20 03:58 UTC.
Position N 48°53' W 123°17'.

Length 168 m; draft 5 m.

Type: Ship. MMSI: 316001269.

Date/timePositionNaut miles runAvg speedWind from/ knotsBaromVisibWave heightAir tempDewpointWater temp
2017-Nov-20 00:30N 48°53' W 123°17'714.7
2017-Nov-20 00:00N 48°46' W 123°21'5 5.0
2017-Nov-19 22:57N 48°42' W 123°24'716.0
2017-Nov-19 22:30N 48°48' W 123°21'714.7
2017-Nov-19 22:00N 48°55' W 123°16'714.3
2017-Nov-19 21:30N 49°00' W 123°09'0 0.7
2017-Nov-19 21:00N 49°00' W 123°08'3 6.5
2017-Nov-19 20:30N 48°58' W 123°11'917.6
2017-Nov-19 20:00N 48°52' W 123°20'10 7.4
2017-Nov-19 18:36N 48°42' W 123°24'216.2
2017-Nov-19 18:30N 48°42' W 123°22'1018.1
2017-Nov-19 17:58N 48°52' W 123°20'817.1
2017-Nov-19 17:30N 48°58' W 123°13'4 8.0
2017-Nov-19 17:00N 49°00' W 123°08'0 0.3
2017-Nov-19 16:30N 49°00' W 123°08'1018.4
2017-Nov-19 15:57N 48°53' W 123°18'714.9
2017-Nov-19 15:30N 48°46' W 123°21'5 0.5
2017-Nov-19 06:22N 48°42' W 123°24'615.3
2017-Nov-19 05:59N 48°47' W 123°21'816.8
2017-Nov-19 05:30N 48°54' W 123°16'816.0
2017-Nov-19 05:00N 49°00' W 123°08'0 0.0
2017-Nov-19 04:30N 49°00' W 123°08'714.2
2017-Nov-19 04:00N 48°55' W 123°15'915.2
2017-Nov-19 03:24N 48°47' W 123°21'6 5.9
2017-Nov-19 02:26N 48°42' W 123°24'615.0
2017-Nov-19 02:00N 48°47' W 123°21'916.5
2017-Nov-19 01:28N 48°55' W 123°15'714.6
2017-Nov-19 01:00N 49°00' W 123°08'0 0.0
2017-Nov-19 00:30N 49°00' W 123°08'714.3
2017-Nov-19 00:01N 48°55' W 123°14'815.5
2017-Nov-18 23:30N 48°48' W 123°21'7 6.5
2017-Nov-18 22:26N 48°42' W 123°24'716.4
2017-Nov-18 22:00N 48°48' W 123°21'715.1
2017-Nov-18 21:30N 48°55' W 123°16'714.7
2017-Nov-18 21:00N 49°00' W 123°08'0 0.0
2017-Nov-18 20:30N 49°00' W 123°08'815.4
2017-Nov-18 20:00N 48°54' W 123°15'916.3
2017-Nov-18 19:27N 48°46' W 123°21'5 5.0
2017-Nov-18 18:24N 48°42' W 123°24'716.2
2017-Nov-18 18:00N 48°48' W 123°21'816.1
2017-Nov-18 17:30N 48°55' W 123°15'714.7
2017-Nov-18 17:00N 49°00' W 123°08'0 0.0
2017-Nov-18 16:31N 49°00' W 123°08'816.0
2017-Nov-18 16:00N 48°54' W 123°16'714.2
2017-Nov-18 15:30N 48°48' W 123°21'7 0.8
2017-Nov-18 06:26N 48°41' W 123°25'613.4
2017-Nov-18 06:00N 48°47' W 123°21'816.4
2017-Nov-18 05:30N 48°54' W 123°17'816.6
2017-Nov-18 05:01N 49°00' W 123°08'0 0.1
2017-Nov-18 04:30N 49°00' W 123°08'713.9
2017-Nov-18 04:00N 48°55' W 123°14'714.3
2017-Nov-18 03:30N 48°49' W 123°21'8 6.9
2017-Nov-18 02:23N 48°41' W 123°24'616.7
2017-Nov-18 02:00N 48°47' W 123°21'816.6
2017-Nov-18 01:30N 48°55' W 123°16'714.3
2017-Nov-18 00:59N 49°00' W 123°08'0 0.0
2017-Nov-18 00:29N 49°00' W 123°08'816.1
2017-Nov-18 00:00N 48°54' W 123°16'815.2
2017-Nov-17 23:30N 48°48' W 123°21'6 6.0
2017-Nov-17 22:26N 48°42' W 123°24'716.5
2017-Nov-17 22:00N 48°48' W 123°20'714.4
2017-Nov-17 21:31N 48°55' W 123°16'815.4
2017-Nov-17 21:00N 49°00' W 123°08'0 0.1
2017-Nov-17 20:29N 49°00' W 123°08'714.6
2017-Nov-17 20:00N 48°55' W 123°15'815.1
2017-Nov-17 19:30N 48°48' W 123°21'7 6.7
2017-Nov-17 18:26N 48°42' W 123°24'716.9
2017-Nov-17 18:00N 48°48' W 123°20'714.7
2017-Nov-17 17:30N 48°55' W 123°15'714.7
2017-Nov-17 17:01N 49°00' W 123°08'0 0.1
2017-Nov-17 16:31N 49°00' W 123°08'816.3
2017-Nov-17 16:01N 48°54' W 123°16'714.3
2017-Nov-17 15:30N 48°47' W 123°21'6 0.7
2017-Nov-17 06:27N 48°42' W 123°24'817.4
2017-Nov-17 06:00N 48°49' W 123°21'816.3
2017-Nov-17 05:30N 48°56' W 123°14'612.1
2017-Nov-17 05:00N 49°00' W 123°08'0 0.2
2017-Nov-17 04:31N 49°00' W 123°08'917.7
2017-Nov-17 04:00N 48°53' W 123°16'815.6
2017-Nov-17 03:28N 48°46' W 123°22'4 4.8
2017-Nov-17 02:33N 48°42' W 123°24'114.7
2017-Nov-17 02:30N 48°42' W 123°23'918.2
2017-Nov-17 02:00N 48°51' W 123°21'816.5
2017-Nov-17 01:30N 48°57' W 123°13'5 9.5
2017-Nov-17 00:59N 49°00' W 123°08'1 1.9
2017-Nov-17 00:30N 48°60' W 123°09'1020.0
2017-Nov-17 00:00N 48°52' W 123°18'916.1
2017-Nov-16 23:28N 48°44' W 123°24'2 3.0
2017-Nov-16 22:37N 48°42' W 123°24'215.5
2017-Nov-16 22:30N 48°42' W 123°22'918.5
2017-Nov-16 21:59N 48°52' W 123°21'713.4
2017-Nov-16 21:29N 48°57' W 123°14'511.0
2017-Nov-16 21:00N 49°00' W 123°08'0 0.2
2017-Nov-16 20:31N 49°00' W 123°08'1018.2
2017-Nov-16 19:59N 48°53' W 123°17'816.2
2017-Nov-16 19:30N 48°45' W 123°21'5 4.3
2017-Nov-16 18:27N 48°42' W 123°24'816.7
2017-Nov-16 17:59N 48°49' W 123°21'816.0
2017-Nov-16 17:31N 48°56' W 123°15'713.3
2017-Nov-16 17:00N 49°00' W 123°08'0 0.0
2017-Nov-16 16:30N 49°00' W 123°08'815.8
2017-Nov-16 16:00N 48°54' W 123°15'714.4
2017-Nov-16 15:31N 48°48' W 123°21'7 0.8
2017-Nov-16 06:29N 48°42' W 123°24'817.1
2017-Nov-16 06:00N 48°50' W 123°21'815.8
2017-Nov-16 05:31N 48°56' W 123°14'610.8
2017-Nov-16 04:57N 49°00' W 123°08'2 5.2
2017-Nov-16 04:30N 48°58' W 123°10'1019.1
2017-Nov-16 04:00N 48°52' W 123°20'816.9
2017-Nov-16 03:30N 48°44' W 123°25'2 3.1
2017-Nov-16 02:45N 48°41' W 123°25'314.7
2017-Nov-16 02:31N 48°44' W 123°21'917.5
2017-Nov-16 02:00N 48°52' W 123°18'1019.2
2017-Nov-16 01:30N 48°60' W 123°09'1 1.4
2017-Nov-16 00:58N 49°00' W 123°08'2 4.8
2017-Nov-16 00:31N 48°59' W 123°10'1018.8
2017-Nov-15 23:59N 48°52' W 123°20'817.5
2017-Nov-15 23:30N 48°44' W 123°25'2 2.4
2017-Nov-15 22:36N 48°41' W 123°25'214.7
2017-Nov-15 22:30N 48°42' W 123°22'918.9
2017-Nov-15 22:00N 48°51' W 123°21'816.9
2017-Nov-15 21:30N 48°57' W 123°13'4 9.0
2017-Nov-15 21:00N 49°00' W 123°08'0 0.0
2017-Nov-15 20:30N 49°00' W 123°08'816.0
2017-Nov-15 20:00N 48°54' W 123°16'815.4
2017-Nov-15 19:30N 48°47' W 123°21'6 6.3
2017-Nov-15 18:32N 48°42' W 123°24'013.3
2017-Nov-15 18:30N 48°42' W 123°24'815.1
2017-Nov-15 18:00N 48°49' W 123°21'815.1
2017-Nov-15 17:30N 48°55' W 123°15'713.5
2017-Nov-15 17:00N 49°00' W 123°08'0 0.0
2017-Nov-15 16:30N 49°00' W 123°08'816.7
2017-Nov-15 16:00N 48°54' W 123°16'714.5
2017-Nov-15 15:30N 48°47' W 123°21'6 0.7
2017-Nov-15 06:57N 48°42' W 123°22'817.7
2017-Nov-15 06:30N 48°50' W 123°21'713.9
2017-Nov-15 06:00N 48°56' W 123°17'713.8
2017-Nov-15 05:30N 49°00' W 123°08'0 0.3
2017-Nov-15 05:00N 49°00' W 123°08'510.6
2017-Nov-15 04:30N 48°56' W 123°13'816.3
2017-Nov-15 04:00N 48°50' W 123°20'9 8.2
2017-Nov-15 02:57N 48°41' W 123°25'715.2
2017-Nov-15 02:29N 48°48' W 123°21'816.7
2017-Nov-15 02:00N 48°55' W 123°16'714.5
2017-Nov-15 01:30N 49°00' W 123°08'0 0.4
2017-Nov-15 01:00N 49°00' W 123°08'5 9.5
2017-Nov-15 00:30N 48°56' W 123°12'916.3
2017-Nov-14 23:59N 48°50' W 123°21'9 7.6
2017-Nov-14 22:47N 48°41' W 123°25'414.9
2017-Nov-14 22:30N 48°45' W 123°21'816.2
2017-Nov-14 22:01N 48°53' W 123°18'918.9
2017-Nov-14 21:31N 49°00' W 123°09'1 1.8
2017-Nov-14 21:00N 49°00' W 123°08'3 5.7
2017-Nov-14 20:30N 48°58' W 123°10'1019.1
2017-Nov-14 20:00N 48°51' W 123°21'10 7.7
2017-Nov-14 18:41N 48°42' W 123°24'315.8
2017-Nov-14 18:29N 48°44' W 123°21'816.3
2017-Nov-14 18:00N 48°52' W 123°20'815.3
2017-Nov-14 17:30N 48°57' W 123°12'4 8.2
2017-Nov-14 17:01N 49°00' W 123°08'0 0.0
2017-Nov-14 16:30N 49°00' W 123°08'816.6
2017-Nov-14 16:00N 48°54' W 123°16'815.3
2017-Nov-14 15:30N 48°47' W 123°21'6 0.8
2017-Nov-14 07:41N 48°41' W 123°25'211.0
2017-Nov-14 07:30N 48°42' W 123°22'918.6
2017-Nov-14 07:00N 48°51' W 123°21'816.8
2017-Nov-14 06:30N 48°57' W 123°12'4 8.3
2017-Nov-14 06:00N 49°00' W 123°08'0 0.8
2017-Nov-14 05:30N 49°00' W 123°08'1020.1
2017-Nov-14 05:00N 48°53' W 123°18'917.4
2017-Nov-14 04:28N 48°44' W 123°24'3 2.4
2017-Nov-14 03:25N 48°41' W 123°24'715.9
2017-Nov-14 03:00N 48°48' W 123°21'816.3
2017-Nov-14 02:30N 48°55' W 123°16'714.6
2017-Nov-14 02:00N 49°00' W 123°08'0 0.3
2017-Nov-14 01:30N 49°00' W 123°08'1 2.8
2017-Nov-14 01:00N 48°59' W 123°08'917.9
2017-Nov-14 00:30N 48°53' W 123°18'4 7.1
2017-Nov-14 00:00N 48°49' W 123°21'714.8
2017-Nov-13 23:30N 48°43' W 123°26'8 0.4
2017-Nov-13 01:57N 48°50' W 123°21'817.3
2017-Nov-13 01:31N 48°56' W 123°14'611.0
2017-Nov-13 00:59N 49°00' W 123°08'1 1.3
2017-Nov-13 00:30N 48°60' W 123°08'1019.5
2017-Nov-13 00:00N 48°53' W 123°18'714.9
2017-Nov-12 23:31N 48°46' W 123°22'4 4.5
2017-Nov-12 22:30N 48°41' W 123°25'815.3
2017-Nov-12 22:00N 48°49' W 123°21'916.5
2017-Nov-12 21:29N 48°56' W 123°14'612.3
2017-Nov-12 21:00N 49°00' W 123°08'0 0.0
2017-Nov-12 20:30N 49°00' W 123°08'816.4
2017-Nov-12 20:00N 48°54' W 123°16'816.4
2017-Nov-12 19:30N 48°46' W 123°21'6 5.7
2017-Nov-12 18:31N 48°41' W 123°25'010.4
2017-Nov-12 18:30N 48°41' W 123°24'816.5
2017-Nov-12 18:00N 48°49' W 123°21'815.0
2017-Nov-12 17:30N 48°56' W 123°15'612.7
2017-Nov-12 17:00N 49°00' W 123°08'0 0.6
2017-Nov-12 16:30N 49°00' W 123°08'612.6
2017-Nov-12 16:00N 48°55' W 123°14'815.8
2017-Nov-12 15:30N 48°48' W 123°21'7 0.8
2017-Nov-12 06:27N 48°41' W 123°24'716.0
2017-Nov-12 05:59N 48°48' W 123°21'815.6
2017-Nov-12 05:30N 48°55' W 123°16'714.5
2017-Nov-12 05:00N 49°00' W 123°08'0 0.3
2017-Nov-12 04:31N 49°00' W 123°08'917.3
2017-Nov-12 04:00N 48°54' W 123°17'713.1
2017-Nov-12 03:30N 48°48' W 123°21'6 6.1
2017-Nov-12 02:27N 48°42' W 123°24'613.5
2017-Nov-12 02:00N 48°47' W 123°21'816.1
2017-Nov-12 01:30N 48°55' W 123°17'816.0
2017-Nov-12 01:00N 49°00' W 123°08'0 0.0
2017-Nov-12 00:30N 49°00' W 123°08'815.8
2017-Nov-12 00:00N 48°54' W 123°16'714.4
2017-Nov-11 23:30N 48°48' W 123°21'7 6.3
2017-Nov-11 22:25N 48°42' W 123°24'818.1
2017-Nov-11 21:58N 48°49' W 123°21'817.4
2017-Nov-11 21:30N 48°56' W 123°14'611.7
2017-Nov-11 21:00N 49°00' W 123°08'0 0.2
2017-Nov-11 20:30N 49°00' W 123°08'918.4
2017-Nov-11 20:00N 48°53' W 123°17'815.6
2017-Nov-11 19:30N 48°46' W 123°22'5 4.4
2017-Nov-11 18:27N 48°42' W 123°24'816.6
2017-Nov-11 17:58N 48°49' W 123°21'714.9
2017-Nov-11 17:31N 48°55' W 123°15'714.2
2017-Nov-11 17:01N 49°00' W 123°08'0 0.0
2017-Nov-11 16:30N 49°00' W 123°08'815.8
2017-Nov-11 15:59N 48°54' W 123°16'916.7
2017-Nov-11 15:26N 48°46' W 123°22'4 0.5
2017-Nov-11 06:40N 48°42' W 123°24'316.7
2017-Nov-11 06:29N 48°43' W 123°21'816.8
2017-Nov-11 06:00N 48°52' W 123°19'1019.9
2017-Nov-11 05:30N 48°59' W 123°10'1 2.9
2017-Nov-11 05:00N 49°00' W 123°08'3 6.0
2017-Nov-11 04:30N 48°58' W 123°10'918.4
2017-Nov-11 04:00N 48°52' W 123°21'10 7.5
2017-Nov-11 02:38N 48°42' W 123°24'216.8
2017-Nov-11 02:30N 48°43' W 123°21'918.1
2017-Nov-11 02:00N 48°52' W 123°20'918.2
2017-Nov-11 01:30N 48°58' W 123°11'3 5.1
2017-Nov-11 00:59N 49°00' W 123°08'2 3.6
2017-Nov-11 00:30N 48°59' W 123°09'1019.3
2017-Nov-11 00:00N 48°52' W 123°19'815.5
2017-Nov-10 23:29N 48°44' W 123°24'3 2.9
2017-Nov-10 22:33N 48°41' W 123°24'117.3
2017-Nov-10 22:30N 48°42' W 123°23'919.1
2017-Nov-10 22:00N 48°51' W 123°21'816.6
2017-Nov-10 21:30N 48°57' W 123°13'5 8.8
2017-Nov-10 20:59N 49°00' W 123°08'1 1.5
2017-Nov-10 20:31N 48°60' W 123°08'1019.5
2017-Nov-10 20:00N 48°52' W 123°18'815.5
2017-Nov-10 19:30N 48°45' W 123°23'4 3.9
2017-Nov-10 18:32N 48°42' W 123°24'015.1
2017-Nov-10 18:30N 48°42' W 123°24'714.4
2017-Nov-10 18:00N 48°49' W 123°21'816.2
2017-Nov-10 17:30N 48°56' W 123°15'613.0
2017-Nov-10 17:00N 49°00' W 123°08'0 0.0
2017-Nov-10 16:30N 49°00' W 123°08'714.9
2017-Nov-10 16:00N 48°55' W 123°15'815.9
2017-Nov-10 15:30N 48°47' W 123°20'6 0.7
2017-Nov-10 06:24N 48°42' W 123°24'716.9
2017-Nov-10 06:00N 48°48' W 123°21'815.1
2017-Nov-10 05:30N 48°55' W 123°16'815.3
2017-Nov-10 05:00N 49°00' W 123°08'0 0.2
2017-Nov-10 04:31N 49°00' W 123°08'918.6
2017-Nov-10 04:01N 48°53' W 123°17'815.1
2017-Nov-10 03:30N 48°46' W 123°21'5 4.8
2017-Nov-10 02:29N 48°42' W 123°24'817.1
2017-Nov-10 02:00N 48°49' W 123°21'815.2
2017-Nov-10 01:30N 48°56' W 123°15'612.8
2017-Nov-10 01:01N 49°00' W 123°08'0 0.1
2017-Nov-10 00:31N 49°00' W 123°08'  

Dump ship's entire track history